createdAt,value
2022-12-02T00:02:39.499Z,17.41
2022-12-02T00:05:34.499Z,17.01
2022-12-02T00:08:13.147Z,17.02
2022-12-02T00:10:40.181Z,17.08
2022-12-02T00:13:26.545Z,17.02
2022-12-02T00:15:57.064Z,17.21
2022-12-02T00:18:24.349Z,17.40
2022-12-02T00:20:51.130Z,17.27
2022-12-02T00:23:18.419Z,17.36
2022-12-02T00:25:50.604Z,17.23
2022-12-02T00:28:17.786Z,17.52
2022-12-02T00:30:44.758Z,17.46
2022-12-02T00:33:11.635Z,17.05
2022-12-02T00:35:38.790Z,16.93
2022-12-02T00:38:06.135Z,17.33
2022-12-02T00:40:34.437Z,17.39
2022-12-02T00:43:01.271Z,16.95
2022-12-02T00:45:27.977Z,16.94
2022-12-02T00:47:54.698Z,17.03
2022-12-02T00:50:21.616Z,17.53
2022-12-02T00:52:48.616Z,17.64
2022-12-02T00:55:15.695Z,17.56
2022-12-02T00:57:42.543Z,17.69
2022-12-02T01:00:10.794Z,17.29
2022-12-02T01:02:37.641Z,17.20
2022-12-02T01:05:04.913Z,17.07
2022-12-02T01:07:31.841Z,16.87
2022-12-02T01:09:58.617Z,17.18
2022-12-02T01:12:25.356Z,16.92
2022-12-02T01:14:52.498Z,17.18
2022-12-02T01:17:19.518Z,17.17
2022-12-02T01:19:46.312Z,16.84
2022-12-02T01:22:13.131Z,16.72
2022-12-02T01:24:39.919Z,17.08
2022-12-02T01:27:06.678Z,16.99
2022-12-02T01:29:33.368Z,16.91
2022-12-02T01:32:00.302Z,16.73
2022-12-02T01:34:27.149Z,17.00
2022-12-02T01:36:53.927Z,17.02
2022-12-02T01:39:20.666Z,16.97
2022-12-02T01:41:47.398Z,17.04
2022-12-02T01:44:14.465Z,17.11
2022-12-02T01:46:41.848Z,17.06
2022-12-02T01:49:09.011Z,17.44
2022-12-02T01:51:35.893Z,16.97
2022-12-02T01:54:03.344Z,17.22
2022-12-02T01:56:30.208Z,17.42
2022-12-02T01:58:57.348Z,17.15
2022-12-02T02:01:30.802Z,17.15
2022-12-02T02:03:58.010Z,17.38
2022-12-02T02:06:27.314Z,16.73
2022-12-02T02:08:55.041Z,17.11
2022-12-02T02:11:22.705Z,16.92
2022-12-02T02:13:49.530Z,16.83
2022-12-02T02:16:17.132Z,16.84
2022-12-02T02:18:44.015Z,17.21
2022-12-02T02:21:17.401Z,16.87
2022-12-02T02:23:44.268Z,16.95
2022-12-02T02:26:11.367Z,16.78
2022-12-02T02:28:38.180Z,16.72
2022-12-02T02:31:05.240Z,17.05
2022-12-02T02:33:34.213Z,16.72
2022-12-02T02:36:03.497Z,16.92
2022-12-02T02:38:31.199Z,16.89
2022-12-02T02:40:58.479Z,17.15
2022-12-02T02:43:28.530Z,16.68
2022-12-02T02:45:56.254Z,16.97
2022-12-02T02:48:24.070Z,16.91
2022-12-02T02:50:51.310Z,17.13
2022-12-02T02:53:20.706Z,17.13
2022-12-02T02:55:47.570Z,16.75
2022-12-02T02:58:14.264Z,16.94
2022-12-02T03:00:44.406Z,16.72
2022-12-02T03:03:14.289Z,16.85
2022-12-02T03:05:41.459Z,16.88
2022-12-02T03:08:09.403Z,16.85
2022-12-02T03:10:36.803Z,16.96
2022-12-02T03:13:03.778Z,16.84
2022-12-02T03:15:31.931Z,16.87
2022-12-02T03:17:58.886Z,16.77
2022-12-02T03:20:26.606Z,16.56
2022-12-02T03:22:53.520Z,16.61
2022-12-02T03:25:20.771Z,16.79
2022-12-02T03:27:47.873Z,17.00
2022-12-02T03:30:18.366Z,16.77
2022-12-02T03:32:46.035Z,17.00
2022-12-02T03:35:13.754Z,16.88
2022-12-02T03:37:40.862Z,17.14
2022-12-02T03:40:08.883Z,16.89
2022-12-02T03:42:36.355Z,17.10
2022-12-02T03:45:05.014Z,16.50
2022-12-02T03:47:31.877Z,16.89
2022-12-02T03:49:59.236Z,16.84
2022-12-02T03:52:26.350Z,16.93
2022-12-02T03:54:55.364Z,16.36
2022-12-02T03:57:22.961Z,16.56
2022-12-02T03:59:49.863Z,16.37
2022-12-02T04:02:16.921Z,16.30
2022-12-02T04:04:43.763Z,16.17
2022-12-02T04:07:10.600Z,16.41
2022-12-02T04:09:37.414Z,16.31
2022-12-02T04:12:04.382Z,16.50
2022-12-02T04:14:31.223Z,16.55
2022-12-02T04:16:58.046Z,16.49
2022-12-02T04:19:25.147Z,16.26
2022-12-02T04:21:51.993Z,16.28
2022-12-02T04:24:18.770Z,16.61
2022-12-02T04:26:45.591Z,16.45
2022-12-02T04:29:12.634Z,16.44
2022-12-02T04:31:39.484Z,16.22
2022-12-02T04:34:06.368Z,15.97
2022-12-02T04:36:33.232Z,16.19
2022-12-02T04:39:00.055Z,16.38
2022-12-02T04:41:27.122Z,16.40
2022-12-02T04:43:53.839Z,16.43
2022-12-02T04:46:20.757Z,16.39
2022-12-02T04:48:47.622Z,16.27
2022-12-02T04:51:14.416Z,16.29
2022-12-02T04:53:41.189Z,16.16
2022-12-02T04:56:08.146Z,16.20
2022-12-02T04:58:34.929Z,15.69
2022-12-02T05:01:01.614Z,16.08
2022-12-02T05:03:28.349Z,15.81
2022-12-02T05:05:55.174Z,15.81
2022-12-02T05:08:21.903Z,16.32
2022-12-02T05:10:48.801Z,15.85
2022-12-02T05:13:15.529Z,16.23
2022-12-02T05:15:42.246Z,16.11
2022-12-02T05:18:09.047Z,16.08
2022-12-02T05:20:35.782Z,15.84
2022-12-02T05:23:03.280Z,16.21
2022-12-02T05:25:30.145Z,16.04
2022-12-02T05:27:56.860Z,16.13
2022-12-02T05:30:23.658Z,15.68
2022-12-02T05:32:50.336Z,15.82
2022-12-02T05:35:17.157Z,16.15
2022-12-02T05:37:43.910Z,15.98
2022-12-02T05:40:11.219Z,16.03
2022-12-02T05:42:38.095Z,16.01
2022-12-02T05:45:16.083Z,15.76
2022-12-02T05:47:50.147Z,15.82
2022-12-02T05:50:17.166Z,15.90
2022-12-02T05:52:43.909Z,15.73
2022-12-02T05:55:16.997Z,15.97
2022-12-02T05:57:44.916Z,15.58
2022-12-02T06:00:19.254Z,15.69
2022-12-02T06:02:56.952Z,15.62
2022-12-02T06:05:23.753Z,15.67
2022-12-02T06:07:54.946Z,15.83
2022-12-02T06:10:32.797Z,15.53
2022-12-02T06:13:20.815Z,15.44
2022-12-02T06:15:49.310Z,15.46
2022-12-02T06:18:19.223Z,15.56
2022-12-02T06:20:51.398Z,15.58
2022-12-02T06:23:20.765Z,15.83
2022-12-02T06:25:50.072Z,15.63
2022-12-02T06:28:28.628Z,15.51
2022-12-02T06:31:14.955Z,15.28
2022-12-02T06:33:43.801Z,15.34
2022-12-02T06:36:13.736Z,15.63
2022-12-02T06:38:51.996Z,15.64
2022-12-02T06:41:26.203Z,15.25
2022-12-02T06:44:00.134Z,15.36
2022-12-02T06:46:26.864Z,15.52
2022-12-02T06:48:53.857Z,15.64
2022-12-02T06:51:21.271Z,15.58
2022-12-02T06:53:48.972Z,15.37
2022-12-02T06:56:18.654Z,15.75
2022-12-02T06:58:56.215Z,15.21
2022-12-02T07:01:44.234Z,15.31
2022-12-02T07:04:34.872Z,15.35
2022-12-02T07:07:16.644Z,15.16
2022-12-02T07:09:47.627Z,15.64
2022-12-02T07:12:21.161Z,15.69
2022-12-02T07:14:54.052Z,15.30
2022-12-02T07:17:31.915Z,15.46
2022-12-02T07:20:06.541Z,15.37
2022-12-02T07:22:37.697Z,15.43
2022-12-02T07:25:10.336Z,15.56
2022-12-02T07:27:41.852Z,15.34
2022-12-02T07:30:40.448Z,14.96
2022-12-02T07:33:07.217Z,15.27
2022-12-02T07:35:33.905Z,15.32
2022-12-02T07:38:00.730Z,15.39
2022-12-02T07:40:27.461Z,15.45
2022-12-02T07:42:54.248Z,15.54
2022-12-02T07:45:20.908Z,15.33
2022-12-02T07:47:48.223Z,15.15
2022-12-02T07:50:17.068Z,15.27
2022-12-02T07:52:43.789Z,15.13
2022-12-02T07:55:10.529Z,15.34
2022-12-02T07:57:37.227Z,15.15
2022-12-02T08:00:09.127Z,15.23
2022-12-02T08:02:35.813Z,15.17
2022-12-02T08:05:02.659Z,15.15
2022-12-02T08:07:29.417Z,15.25
2022-12-02T08:09:56.282Z,15.13
2022-12-02T08:12:23.093Z,15.08
2022-12-02T08:14:50.129Z,15.26
2022-12-02T08:17:16.993Z,15.26
2022-12-02T08:19:43.622Z,15.21
2022-12-02T08:22:10.311Z,14.82
2022-12-02T08:24:36.987Z,15.11
2022-12-02T08:27:03.722Z,15.11
2022-12-02T08:29:30.767Z,15.00
2022-12-02T08:31:57.540Z,15.00
2022-12-02T08:34:24.317Z,15.00
2022-12-02T08:36:50.975Z,14.92
2022-12-02T08:39:18.018Z,15.13
2022-12-02T08:41:44.682Z,15.11
2022-12-02T08:44:11.435Z,15.20
2022-12-02T08:46:38.221Z,15.04
2022-12-02T08:49:05.234Z,15.28
2022-12-02T08:51:32.752Z,14.95
2022-12-02T08:53:59.549Z,14.85
2022-12-02T08:56:26.227Z,14.66
2022-12-02T08:58:53.087Z,14.84
2022-12-02T09:01:19.850Z,14.94
2022-12-02T09:03:46.586Z,14.87
2022-12-02T09:06:13.258Z,14.59
2022-12-02T09:08:40.012Z,14.63
2022-12-02T09:11:06.738Z,15.06
2022-12-02T09:13:33.588Z,15.17
2022-12-02T09:16:00.380Z,14.65
2022-12-02T09:18:27.155Z,15.12
2022-12-02T09:20:53.769Z,15.01
2022-12-02T09:23:20.376Z,14.88
2022-12-02T09:25:47.013Z,14.73
2022-12-02T09:28:13.685Z,14.82
2022-12-02T09:30:40.282Z,14.96
2022-12-02T09:33:07.059Z,15.10
2022-12-02T09:35:33.841Z,15.16
2022-12-02T09:38:01.827Z,14.74
2022-12-02T09:40:28.684Z,15.00
2022-12-02T09:42:55.463Z,15.17
2022-12-02T09:45:22.212Z,14.91
2022-12-02T09:47:48.954Z,14.99
2022-12-02T09:50:16.965Z,14.91
2022-12-02T09:52:45.063Z,14.98
2022-12-02T09:55:14.839Z,14.91
2022-12-02T09:57:41.625Z,14.71
2022-12-02T10:00:20.928Z,14.87
2022-12-02T10:02:53.284Z,14.52
2022-12-02T10:05:23.464Z,14.77
2022-12-02T10:07:52.772Z,15.07
2022-12-02T10:10:22.479Z,14.94
2022-12-02T10:12:49.823Z,15.06
2022-12-02T10:15:25.690Z,14.64
2022-12-02T10:17:53.925Z,14.86
2022-12-02T10:20:26.408Z,14.58
2022-12-02T10:23:13.198Z,14.43
2022-12-02T10:25:46.222Z,14.92
2022-12-02T10:28:42.429Z,14.64
2022-12-02T10:31:12.127Z,14.61
2022-12-02T10:33:42.161Z,14.67
2022-12-02T10:36:10.338Z,14.56
2022-12-02T10:38:41.818Z,14.92
2022-12-02T10:41:14.496Z,14.70
2022-12-02T10:43:43.381Z,14.66
2022-12-02T10:46:14.031Z,14.72
2022-12-02T10:48:41.929Z,14.55
2022-12-02T10:51:16.753Z,14.61
2022-12-02T10:53:45.590Z,14.47
2022-12-02T10:56:19.320Z,14.65
2022-12-02T10:58:46.859Z,14.52
2022-12-02T11:01:13.913Z,14.55
2022-12-02T11:03:40.989Z,14.45
2022-12-02T11:06:15.080Z,14.57
2022-12-02T11:08:42.404Z,14.46
2022-12-02T11:11:15.901Z,14.75
2022-12-02T11:14:03.073Z,14.59
2022-12-02T11:16:29.769Z,14.65
2022-12-02T11:19:05.570Z,14.71
2022-12-02T11:21:35.220Z,14.72
2022-12-02T11:24:34.671Z,14.46
2022-12-02T11:27:01.278Z,14.45
2022-12-02T11:29:31.502Z,14.86
2022-12-02T11:32:21.350Z,14.59
2022-12-02T11:35:16.816Z,14.51
2022-12-02T11:37:47.296Z,14.63
2022-12-02T11:40:16.543Z,14.62
2022-12-02T11:42:45.167Z,14.66
2022-12-02T11:45:17.843Z,14.74
2022-12-02T11:47:55.481Z,14.51
2022-12-02T11:50:26.644Z,14.66
2022-12-02T11:52:57.172Z,14.79
2022-12-02T11:55:25.897Z,14.32
2022-12-02T11:57:57.243Z,14.52
2022-12-02T12:00:26.451Z,14.61
2022-12-02T12:03:15.218Z,14.21
2022-12-02T12:06:03.591Z,14.48
2022-12-02T12:08:30.270Z,14.69
2022-12-02T12:11:26.405Z,14.49
2022-12-02T12:14:11.319Z,14.62
2022-12-02T12:16:48.081Z,14.59
2022-12-02T12:19:14.841Z,14.54
2022-12-02T12:21:46.677Z,14.51
2022-12-02T12:24:19.245Z,14.65
2022-12-02T12:26:52.921Z,14.46
2022-12-02T12:29:24.995Z,14.59
2022-12-02T12:31:51.794Z,14.58
2022-12-02T12:34:18.546Z,14.73
2022-12-02T12:36:46.812Z,14.82
2022-12-02T12:39:14.754Z,14.35
2022-12-02T12:44:31.460Z,14.85
2022-12-02T12:47:03.539Z,14.72
2022-12-02T12:49:31.000Z,14.62
2022-12-02T12:51:58.991Z,14.51
2022-12-02T12:54:26.755Z,14.71
2022-12-02T12:56:53.521Z,14.75
2022-12-02T12:59:20.174Z,14.46
2022-12-02T13:01:46.974Z,14.34
2022-12-02T13:04:13.964Z,14.71
2022-12-02T13:06:42.820Z,14.74
2022-12-02T13:09:10.491Z,14.46
2022-12-02T13:11:37.916Z,14.34
2022-12-02T13:14:04.977Z,14.29
2022-12-02T13:16:32.488Z,14.88
2022-12-02T13:18:59.355Z,14.62
2022-12-02T13:21:25.986Z,14.43
2022-12-02T13:23:52.691Z,14.40
2022-12-02T13:26:19.956Z,14.42
2022-12-02T13:28:46.945Z,14.41
2022-12-02T13:31:13.721Z,14.68
2022-12-02T13:33:40.793Z,14.69
2022-12-02T13:36:08.040Z,14.33
2022-12-02T13:38:34.773Z,14.35
2022-12-02T13:41:01.480Z,14.49
2022-12-02T13:43:28.269Z,14.56
2022-12-02T13:45:55.157Z,14.65
2022-12-02T13:48:21.891Z,14.43
2022-12-02T13:50:48.550Z,14.64
2022-12-02T13:53:15.342Z,14.73
2022-12-02T13:55:42.175Z,14.30
2022-12-02T13:58:09.019Z,14.43
2022-12-02T14:00:35.780Z,14.47
2022-12-02T14:03:02.614Z,14.23
2022-12-02T14:05:29.365Z,14.49
2022-12-02T14:07:56.231Z,14.61
2022-12-02T14:10:23.127Z,14.55
2022-12-02T14:12:49.838Z,14.68
2022-12-02T14:15:16.527Z,14.78
2022-12-02T14:17:43.227Z,14.48
2022-12-02T14:20:10.500Z,14.47
2022-12-02T14:22:37.140Z,14.45
2022-12-02T14:25:04.045Z,14.71
2022-12-02T14:27:31.180Z,14.28
2022-12-02T14:29:58.030Z,14.46
2022-12-02T14:32:24.861Z,14.41
2022-12-02T14:34:52.032Z,14.62
2022-12-02T14:37:19.000Z,14.66
2022-12-02T14:39:45.756Z,14.46
2022-12-02T14:42:12.596Z,14.17
2022-12-02T14:44:39.255Z,14.43
2022-12-02T14:47:06.003Z,14.42
2022-12-02T14:49:41.236Z,14.34
2022-12-02T14:52:08.641Z,14.54
2022-12-02T14:54:35.422Z,14.33
2022-12-02T14:57:02.616Z,14.48
2022-12-02T14:59:29.334Z,14.47
2022-12-02T15:01:56.298Z,14.72
2022-12-02T15:04:23.144Z,14.47
2022-12-02T15:06:49.824Z,14.41
2022-12-02T15:09:16.559Z,14.27
2022-12-02T15:11:43.239Z,14.33
2022-12-02T15:14:10.259Z,14.54
2022-12-02T15:16:37.175Z,14.48
2022-12-02T15:19:04.065Z,14.62
2022-12-02T15:21:30.818Z,14.35
2022-12-02T15:23:57.534Z,14.49
2022-12-02T15:26:24.307Z,14.46
2022-12-02T15:28:51.325Z,14.54
2022-12-02T15:31:18.133Z,14.54
2022-12-02T15:33:48.722Z,14.16
2022-12-02T15:36:15.705Z,14.39
2022-12-02T15:38:42.360Z,14.20
2022-12-02T15:41:10.056Z,14.25
2022-12-02T15:43:36.817Z,14.22
2022-12-02T15:46:03.596Z,14.30
2022-12-02T15:48:30.354Z,14.50
2022-12-02T15:50:57.040Z,14.35
2022-12-02T15:53:24.268Z,14.35
2022-12-02T15:55:51.444Z,14.23
2022-12-02T15:58:19.050Z,14.60
2022-12-02T16:00:46.087Z,14.38
2022-12-02T16:03:12.835Z,14.65
2022-12-02T16:05:39.572Z,14.27
2022-12-02T16:08:06.306Z,14.13
2022-12-02T16:10:33.101Z,14.43
2022-12-02T16:12:59.989Z,14.41
2022-12-02T16:15:26.786Z,14.38
2022-12-02T16:17:53.458Z,14.40
2022-12-02T16:20:20.239Z,14.35
2022-12-02T16:22:47.054Z,14.14
2022-12-02T16:25:18.638Z,14.59
2022-12-02T16:27:45.508Z,14.30
2022-12-02T16:30:12.680Z,14.27
2022-12-02T16:32:39.400Z,14.49
2022-12-02T16:35:06.623Z,14.86
2022-12-02T16:37:33.340Z,14.92
2022-12-02T16:40:00.105Z,15.11
2022-12-02T16:42:27.269Z,14.72
2022-12-02T16:44:55.912Z,14.72
2022-12-02T16:47:23.554Z,14.87
2022-12-02T16:49:50.594Z,15.00
2022-12-02T16:52:17.659Z,14.73
2022-12-02T16:54:44.401Z,14.82
2022-12-02T16:57:11.174Z,14.56
2022-12-02T16:59:37.837Z,14.86
2022-12-02T17:02:04.536Z,14.89
2022-12-02T17:04:31.332Z,14.85
2022-12-02T17:06:58.730Z,14.84
2022-12-02T17:09:25.428Z,15.12
2022-12-02T17:11:52.412Z,15.07
2022-12-02T17:14:19.222Z,15.22
2022-12-02T17:16:46.094Z,14.99
2022-12-02T17:19:12.949Z,15.08
2022-12-02T17:21:39.667Z,15.31
2022-12-02T17:24:06.594Z,14.84
2022-12-02T17:26:33.503Z,14.56
2022-12-02T17:29:00.178Z,14.95
2022-12-02T17:31:26.917Z,14.91
2022-12-02T17:33:53.701Z,15.28
2022-12-02T17:36:20.396Z,15.02
2022-12-02T17:38:50.914Z,14.88
2022-12-02T17:41:23.324Z,15.02
2022-12-02T17:43:50.227Z,14.64
2022-12-02T17:46:17.035Z,14.77
2022-12-02T17:48:43.977Z,14.58
2022-12-02T17:51:11.622Z,14.68
2022-12-02T17:53:38.995Z,14.71
2022-12-02T17:56:07.096Z,14.40
2022-12-02T17:58:33.862Z,14.75
2022-12-02T18:01:03.515Z,14.87
2022-12-02T18:03:33.036Z,14.88
2022-12-02T18:05:59.865Z,14.84
2022-12-02T18:08:26.726Z,14.64
2022-12-02T18:10:53.422Z,14.89
2022-12-02T18:13:21.510Z,14.48
2022-12-02T18:16:00.360Z,13.94
2022-12-02T18:18:27.460Z,13.69
2022-12-02T18:20:55.432Z,13.43
2022-12-02T18:23:27.878Z,13.26
2022-12-02T18:25:56.094Z,13.30
2022-12-02T18:28:22.905Z,13.47
2022-12-02T18:30:55.613Z,13.45
2022-12-02T18:33:24.929Z,13.59
2022-12-02T18:35:51.723Z,13.51
2022-12-02T18:38:18.638Z,13.54
2022-12-02T18:40:45.492Z,13.14
2022-12-02T18:43:12.308Z,13.65
2022-12-02T18:45:39.105Z,13.15
2022-12-02T18:48:05.926Z,13.35
2022-12-02T18:50:32.813Z,13.33
2022-12-02T18:52:59.710Z,13.53
2022-12-02T18:55:26.768Z,13.45
2022-12-02T18:58:11.414Z,13.29
2022-12-02T19:00:38.310Z,13.25
2022-12-02T19:03:05.079Z,13.29
2022-12-02T19:05:31.830Z,13.50
2022-12-02T19:07:58.665Z,13.27
2022-12-02T19:10:25.529Z,13.12
2022-12-02T19:12:52.333Z,13.27
2022-12-02T19:15:19.408Z,12.94
2022-12-02T19:18:01.325Z,12.93
2022-12-02T19:20:28.061Z,13.32
2022-12-02T19:22:54.909Z,13.02
2022-12-02T19:25:21.714Z,13.20
2022-12-02T19:27:57.235Z,13.28
2022-12-02T19:30:24.581Z,13.22
2022-12-02T19:32:51.429Z,12.66
2022-12-02T19:35:18.236Z,13.01
2022-12-02T19:37:44.904Z,12.58
2022-12-02T19:40:18.157Z,12.89
2022-12-02T19:42:44.901Z,12.61
2022-12-02T19:45:13.924Z,12.75
2022-12-02T19:47:41.304Z,12.56
2022-12-02T19:50:10.315Z,12.42
2022-12-02T19:52:37.059Z,12.56
2022-12-02T19:55:03.948Z,12.25
2022-12-02T19:57:30.738Z,12.42
2022-12-02T19:59:57.487Z,12.06
2022-12-02T20:02:24.316Z,12.04
2022-12-02T20:04:51.104Z,12.22
2022-12-02T20:07:18.121Z,12.18
2022-12-02T20:09:44.980Z,12.22
2022-12-02T20:12:11.830Z,12.53
2022-12-02T20:14:38.671Z,12.48
2022-12-02T20:17:05.352Z,12.85
2022-12-02T20:19:32.053Z,12.73
2022-12-02T20:21:58.949Z,12.67
2022-12-02T20:24:56.127Z,12.64
2022-12-02T20:27:22.991Z,12.42
2022-12-02T20:29:49.796Z,12.80
2022-12-02T20:32:17.177Z,12.40
2022-12-02T20:34:43.885Z,12.22
2022-12-02T20:37:11.646Z,12.41
2022-12-02T20:39:44.090Z,12.22
2022-12-02T20:42:10.987Z,12.61
2022-12-02T20:44:37.834Z,12.50
2022-12-02T20:47:04.583Z,12.32
2022-12-02T20:49:31.395Z,12.19
2022-12-02T20:51:58.357Z,12.62
2022-12-02T20:54:25.277Z,12.22
2022-12-02T20:56:52.020Z,12.47
2022-12-02T20:59:18.837Z,12.01
2022-12-02T21:01:45.659Z,12.26
2022-12-02T21:04:12.440Z,12.35
2022-12-02T21:06:39.251Z,12.62
2022-12-02T21:09:06.425Z,12.15
2022-12-02T21:11:33.101Z,12.00
2022-12-02T21:14:00.024Z,12.44
2022-12-02T21:16:27.215Z,12.02
2022-12-02T21:18:54.024Z,12.24
2022-12-02T21:21:20.815Z,12.27
2022-12-02T21:23:47.513Z,11.93
2022-12-02T21:26:14.232Z,11.88
2022-12-02T21:28:40.927Z,11.80
2022-12-02T21:31:07.716Z,11.84
2022-12-02T21:33:34.459Z,11.79
2022-12-02T21:36:01.182Z,12.19
2022-12-02T21:38:28.176Z,12.09
2022-12-02T21:40:54.899Z,11.80
2022-12-02T21:43:21.559Z,12.28
2022-12-02T21:45:48.389Z,12.17
2022-12-02T21:48:15.331Z,11.97
2022-12-02T21:50:42.198Z,12.00
2022-12-02T21:53:09.282Z,12.15
2022-12-02T21:55:35.935Z,11.66
2022-12-02T21:58:02.910Z,11.82
2022-12-02T22:00:30.014Z,11.90
2022-12-02T22:02:56.769Z,11.70
2022-12-02T22:05:23.511Z,11.89
2022-12-02T22:07:50.502Z,11.64
2022-12-02T22:10:23.112Z,11.45
2022-12-02T22:12:50.603Z,11.97
2022-12-02T22:15:20.045Z,11.98
2022-12-02T22:17:47.190Z,11.67
2022-12-02T22:20:15.246Z,11.94
2022-12-02T22:22:42.040Z,11.90
2022-12-02T22:25:09.210Z,11.94
2022-12-02T22:27:36.000Z,11.60
2022-12-02T22:30:02.756Z,11.92
2022-12-02T22:32:29.750Z,11.81
2022-12-02T22:34:56.817Z,11.46
2022-12-02T22:37:23.638Z,11.94
2022-12-02T22:39:50.366Z,11.76
2022-12-02T22:42:17.131Z,12.00
2022-12-02T22:44:43.926Z,11.72
2022-12-02T22:47:10.697Z,11.75
2022-12-02T22:49:37.736Z,11.68
2022-12-02T22:52:04.590Z,11.53
2022-12-02T22:54:31.311Z,11.57
2022-12-02T22:56:58.073Z,11.50
2022-12-02T22:59:24.886Z,11.38
2022-12-02T23:01:51.900Z,11.66
2022-12-02T23:04:18.837Z,11.42
2022-12-02T23:06:45.521Z,11.56
2022-12-02T23:09:12.232Z,11.35
2022-12-02T23:11:39.256Z,11.36
2022-12-02T23:14:06.669Z,11.32
2022-12-02T23:16:33.488Z,11.35
2022-12-02T23:19:00.215Z,11.48
2022-12-02T23:21:27.019Z,11.26
2022-12-02T23:23:53.902Z,11.43
2022-12-02T23:26:20.676Z,11.61
2022-12-02T23:28:47.498Z,11.58
2022-12-02T23:31:14.317Z,11.10
2022-12-02T23:33:41.153Z,11.55
2022-12-02T23:36:08.269Z,11.10
2022-12-02T23:38:34.982Z,11.17
2022-12-02T23:41:01.728Z,11.59
2022-12-02T23:43:28.461Z,11.22
2022-12-02T23:45:55.533Z,11.49
2022-12-02T23:48:22.548Z,11.10
2022-12-02T23:50:49.320Z,11.33
2022-12-02T23:53:16.247Z,10.92
2022-12-02T23:55:43.046Z,11.13
2022-12-02T23:58:09.774Z,11.13
